createdAt,value
2023-03-12T00:00:01.102Z,2.00
2023-03-12T00:01:01.050Z,2.00
2023-03-12T00:02:01.058Z,2.07
2023-03-12T00:03:01.009Z,2.10
2023-03-12T00:04:01.019Z,2.09
2023-03-12T00:05:00.984Z,2.06
2023-03-12T00:06:09.951Z,2.03
2023-03-12T00:07:00.980Z,2.05
2023-03-12T00:08:05.980Z,2.09
2023-03-12T00:09:00.942Z,2.00
2023-03-12T00:10:00.933Z,2.06
2023-03-12T00:11:00.920Z,2.06
2023-03-12T00:12:00.969Z,1.98
2023-03-12T00:13:00.908Z,1.91
2023-03-12T00:14:00.891Z,2.00
2023-03-12T00:15:00.914Z,2.00
2023-03-12T00:16:00.913Z,1.93
2023-03-12T00:17:00.900Z,1.93
2023-03-12T00:18:00.885Z,1.90
2023-03-12T00:19:05.856Z,1.88
2023-03-12T00:20:00.852Z,1.93
2023-03-12T00:21:00.824Z,1.93
2023-03-12T00:22:00.832Z,1.93
2023-03-12T00:23:00.790Z,1.98
2023-03-12T00:24:00.814Z,1.98
2023-03-12T00:25:00.790Z,1.88
2023-03-12T00:26:00.789Z,1.90
2023-03-12T00:27:00.791Z,1.86
2023-03-12T00:28:00.736Z,1.87
2023-03-12T00:29:00.722Z,1.93
2023-03-12T00:30:05.830Z,1.90
2023-03-12T00:31:00.764Z,1.87
2023-03-12T00:32:00.705Z,1.86
2023-03-12T00:33:00.683Z,1.93
2023-03-12T00:34:00.689Z,1.93
2023-03-12T00:35:00.658Z,1.79
2023-03-12T00:36:00.692Z,1.79
2023-03-12T00:37:00.651Z,1.88
2023-03-12T00:38:00.630Z,1.81
2023-03-12T00:39:00.611Z,1.83
2023-03-12T00:40:00.602Z,1.87
2023-03-12T00:41:05.614Z,1.88
2023-03-12T00:42:00.613Z,1.84
2023-03-12T00:43:00.569Z,1.83
2023-03-12T00:44:00.558Z,1.84
2023-03-12T00:45:00.552Z,1.83
2023-03-12T00:46:00.554Z,1.83
2023-03-12T00:47:00.590Z,1.90
2023-03-12T00:48:00.562Z,1.81
2023-03-12T00:49:00.504Z,1.83
2023-03-12T00:50:00.508Z,1.91
2023-03-12T00:51:00.483Z,1.86
2023-03-12T00:52:05.499Z,1.86
2023-03-12T00:53:00.455Z,1.84
2023-03-12T00:54:00.516Z,1.84
2023-03-12T00:55:00.452Z,1.87
2023-03-12T00:56:00.421Z,1.76
2023-03-12T00:57:00.424Z,1.77
2023-03-12T00:58:00.399Z,1.86
2023-03-12T00:59:00.403Z,1.88
2023-03-12T01:00:00.409Z,1.81
2023-03-12T01:01:00.419Z,1.86
2023-03-12T01:02:00.374Z,1.84
2023-03-12T01:03:05.370Z,1.91
2023-03-12T01:04:00.374Z,1.87
2023-03-12T01:05:00.350Z,1.91
2023-03-12T01:06:00.358Z,1.95
2023-03-12T01:07:00.318Z,1.93
2023-03-12T01:08:00.298Z,2.03
2023-03-12T01:09:00.287Z,2.05
2023-03-12T01:10:00.279Z,2.06
2023-03-12T01:11:00.279Z,2.07
2023-03-12T01:12:00.318Z,2.10
2023-03-12T01:13:00.243Z,2.07
2023-03-12T01:14:05.251Z,2.06
2023-03-12T01:15:00.223Z,1.98
2023-03-12T01:16:00.326Z,1.88
2023-03-12T01:17:00.210Z,1.93
2023-03-12T01:18:00.228Z,1.95
2023-03-12T01:19:00.180Z,1.95
2023-03-12T01:20:00.168Z,2.00
2023-03-12T01:21:00.157Z,2.05
2023-03-12T01:22:00.168Z,1.98
2023-03-12T01:23:00.136Z,1.98
2023-03-12T01:24:00.156Z,2.00
2023-03-12T01:25:05.149Z,2.06
2023-03-12T01:26:00.129Z,2.10
2023-03-12T01:27:00.097Z,2.07
2023-03-12T01:28:00.119Z,2.12
2023-03-12T01:29:00.071Z,2.17
2023-03-12T01:30:00.098Z,2.16
2023-03-12T01:31:00.050Z,2.16
2023-03-12T01:32:00.055Z,2.16
2023-03-12T01:33:00.023Z,2.06
2023-03-12T01:34:00.010Z,2.14
2023-03-12T01:35:00.001Z,2.07
2023-03-12T01:36:05.164Z,2.07
2023-03-12T01:36:59.992Z,2.24
2023-03-12T01:37:59.993Z,2.17
2023-03-12T01:38:59.967Z,2.18
2023-03-12T01:39:59.940Z,2.14
2023-03-12T01:40:59.948Z,2.17
2023-03-12T01:41:59.965Z,2.06
2023-03-12T01:42:59.910Z,2.18
2023-03-12T01:43:59.896Z,2.07
2023-03-12T01:44:59.891Z,2.09
2023-03-12T01:45:59.943Z,2.14
2023-03-12T01:47:04.902Z,1.99
2023-03-12T01:47:59.902Z,2.03
2023-03-12T01:48:59.844Z,2.09
2023-03-12T01:49:59.830Z,2.10
2023-03-12T01:50:59.828Z,2.07
2023-03-12T01:52:00.112Z,2.14
2023-03-12T01:52:59.827Z,2.07
2023-03-12T01:53:59.851Z,2.05
2023-03-12T01:54:59.778Z,2.06
2023-03-12T01:55:59.764Z,2.14
2023-03-12T01:56:59.757Z,2.17
2023-03-12T01:58:04.771Z,2.24
2023-03-12T01:58:59.735Z,2.24
2023-03-12T01:59:59.815Z,2.21
2023-03-12T02:00:59.743Z,2.12
2023-03-12T02:01:59.703Z,2.12
2023-03-12T02:02:59.724Z,2.21
2023-03-12T02:03:59.754Z,2.09
2023-03-12T02:04:59.664Z,2.09
2023-03-12T02:05:59.687Z,2.00
2023-03-12T02:06:59.659Z,2.07
2023-03-12T02:07:59.643Z,2.03
2023-03-12T02:09:04.665Z,2.00
2023-03-12T02:09:59.610Z,2.03
2023-03-12T02:10:59.599Z,2.06
2023-03-12T02:11:59.605Z,2.00
2023-03-12T02:12:59.641Z,2.05
2023-03-12T02:13:59.569Z,2.00
2023-03-12T02:14:59.556Z,2.02
2023-03-12T02:15:59.598Z,2.10
2023-03-12T02:16:59.550Z,2.06
2023-03-12T02:17:59.565Z,2.05
2023-03-12T02:18:59.552Z,2.09
2023-03-12T02:20:04.528Z,2.06
2023-03-12T02:20:59.493Z,2.18
2023-03-12T02:21:59.477Z,2.18
2023-03-12T02:22:59.479Z,2.14
2023-03-12T02:23:59.484Z,2.18
2023-03-12T02:24:59.485Z,2.20
2023-03-12T02:25:59.449Z,2.18
2023-03-12T02:26:59.429Z,2.35
2023-03-12T02:27:59.424Z,2.34
2023-03-12T02:28:59.408Z,2.21
2023-03-12T02:29:59.429Z,2.07
2023-03-12T02:31:04.546Z,2.03
2023-03-12T02:31:59.483Z,1.95
2023-03-12T02:32:59.478Z,1.88
2023-03-12T02:33:59.350Z,1.90
2023-03-12T02:34:59.337Z,1.95
2023-03-12T02:35:59.362Z,1.90
2023-03-12T02:36:59.356Z,1.91
2023-03-12T02:37:59.320Z,1.81
2023-03-12T02:38:59.297Z,1.80
2023-03-12T02:39:59.281Z,1.80
2023-03-12T02:40:59.293Z,1.77
2023-03-12T02:42:04.289Z,1.81
2023-03-12T02:42:59.303Z,1.88
2023-03-12T02:43:59.239Z,2.00
2023-03-12T02:44:59.229Z,1.95
2023-03-12T02:45:59.246Z,1.91
2023-03-12T02:46:59.244Z,1.88
2023-03-12T02:47:59.204Z,1.88
2023-03-12T02:48:59.185Z,1.86
2023-03-12T02:49:59.216Z,1.91
2023-03-12T02:50:59.168Z,1.93
2023-03-12T02:51:59.156Z,1.99
2023-03-12T02:53:04.177Z,2.03
2023-03-12T02:53:59.129Z,2.06
2023-03-12T02:54:59.119Z,2.09
2023-03-12T02:55:59.158Z,2.06
2023-03-12T02:56:59.119Z,2.07
2023-03-12T02:57:59.097Z,2.14
2023-03-12T02:58:59.077Z,2.10
2023-03-12T02:59:59.062Z,2.24
2023-03-12T03:00:59.107Z,2.17
2023-03-12T03:01:59.082Z,2.24
2023-03-12T03:02:59.058Z,2.18
2023-03-12T03:04:04.107Z,2.09
2023-03-12T03:04:59.012Z,2.06
2023-03-12T03:05:58.998Z,2.00
2023-03-12T03:06:58.997Z,2.07
2023-03-12T03:07:59.014Z,2.00
2023-03-12T03:08:58.981Z,1.88
2023-03-12T03:09:58.959Z,2.00
2023-03-12T03:10:58.949Z,2.05
2023-03-12T03:11:58.935Z,2.00
2023-03-12T03:12:58.942Z,2.02
2023-03-12T03:13:58.998Z,1.99
2023-03-12T03:15:04.126Z,2.07
2023-03-12T03:15:59.007Z,2.06
2023-03-12T03:16:58.878Z,2.06
2023-03-12T03:17:58.898Z,2.10
2023-03-12T03:18:58.872Z,2.07
2023-03-12T03:19:58.905Z,2.07
2023-03-12T03:20:58.838Z,2.17
2023-03-12T03:21:58.837Z,2.17
2023-03-12T03:22:58.822Z,2.17
2023-03-12T03:23:58.817Z,2.10
2023-03-12T03:24:58.809Z,2.17
2023-03-12T03:26:03.877Z,2.20
2023-03-12T03:26:58.782Z,2.34
2023-03-12T03:27:58.772Z,2.21
2023-03-12T03:28:58.785Z,2.27
2023-03-12T03:29:58.750Z,2.25
2023-03-12T03:30:58.763Z,2.23
2023-03-12T03:31:58.771Z,2.25
2023-03-12T03:32:58.706Z,2.21
2023-03-12T03:33:58.733Z,2.28
2023-03-12T03:34:58.686Z,2.30
2023-03-12T03:35:58.792Z,2.24
2023-03-12T03:37:03.695Z,2.31
2023-03-12T03:37:58.677Z,2.39
2023-03-12T03:38:58.650Z,2.35
2023-03-12T03:39:58.629Z,2.36
2023-03-12T03:40:58.620Z,2.23
2023-03-12T03:41:58.611Z,2.27
2023-03-12T03:42:58.597Z,2.30
2023-03-12T03:43:58.636Z,2.31
2023-03-12T03:44:58.601Z,2.24
2023-03-12T03:45:58.607Z,2.24
2023-03-12T03:46:58.550Z,2.27
2023-03-12T03:48:03.570Z,2.38
2023-03-12T03:48:58.553Z,2.36
2023-03-12T03:49:58.553Z,2.35
2023-03-12T03:50:58.509Z,2.42
2023-03-12T03:51:58.499Z,2.45
2023-03-12T03:52:58.488Z,2.41
2023-03-12T03:53:58.492Z,2.39
2023-03-12T03:54:58.467Z,2.42
2023-03-12T03:55:58.508Z,2.38
2023-03-12T03:56:58.444Z,2.31
2023-03-12T03:57:58.431Z,2.35
2023-03-12T03:59:03.450Z,2.35
2023-03-12T03:59:58.413Z,2.34
2023-03-12T04:00:58.421Z,2.31
2023-03-12T04:01:58.448Z,2.27
2023-03-12T04:02:58.409Z,2.23
2023-03-12T04:03:58.389Z,2.23
2023-03-12T04:04:58.358Z,2.18
2023-03-12T04:05:58.373Z,2.12
2023-03-12T04:06:58.341Z,2.17
2023-03-12T04:07:58.362Z,2.20
2023-03-12T04:08:58.319Z,2.20
2023-03-12T04:10:03.324Z,2.24
2023-03-12T04:10:58.297Z,2.25
2023-03-12T04:11:58.276Z,2.16
2023-03-12T04:12:58.267Z,2.23
2023-03-12T04:13:58.305Z,2.23
2023-03-12T04:14:58.252Z,2.25
2023-03-12T04:15:58.275Z,2.20
2023-03-12T04:16:58.248Z,2.17
2023-03-12T04:17:58.253Z,2.24
2023-03-12T04:18:58.218Z,2.14
2023-03-12T04:19:58.259Z,2.16
2023-03-12T04:21:03.200Z,2.23
2023-03-12T04:21:58.174Z,2.20
2023-03-12T04:22:58.158Z,2.16
2023-03-12T04:23:58.161Z,2.21
2023-03-12T04:24:58.141Z,2.31
2023-03-12T04:25:58.163Z,2.21
2023-03-12T04:26:58.121Z,2.28
2023-03-12T04:27:58.104Z,2.27
2023-03-12T04:28:58.109Z,2.27
2023-03-12T04:29:58.082Z,2.21
2023-03-12T04:30:58.139Z,2.18
2023-03-12T04:32:03.128Z,2.23
2023-03-12T04:32:58.047Z,2.18
2023-03-12T04:33:58.057Z,2.27
2023-03-12T04:34:58.032Z,2.18
2023-03-12T04:35:58.067Z,2.16
2023-03-12T04:36:58.007Z,2.21
2023-03-12T04:37:58.037Z,2.21
2023-03-12T04:38:57.993Z,2.25
2023-03-12T04:39:57.976Z,2.31
2023-03-12T04:40:57.960Z,2.28
2023-03-12T04:41:57.951Z,2.35
2023-03-12T04:43:02.962Z,2.38
2023-03-12T04:43:57.998Z,2.31
2023-03-12T04:44:57.922Z,2.36
2023-03-12T04:45:57.913Z,2.35
2023-03-12T04:46:58.022Z,2.38
2023-03-12T04:47:57.919Z,2.42
2023-03-12T04:48:57.888Z,2.31
2023-03-12T04:49:57.920Z,2.41
2023-03-12T04:50:57.858Z,2.38
2023-03-12T04:51:57.847Z,2.41
2023-03-12T04:52:57.845Z,2.41
2023-03-12T04:54:02.851Z,2.46
2023-03-12T04:54:57.824Z,2.41
2023-03-12T04:55:57.820Z,2.31
2023-03-12T04:56:57.794Z,2.38
2023-03-12T04:57:57.782Z,2.42
2023-03-12T04:58:57.778Z,2.43
2023-03-12T04:59:57.762Z,2.39
2023-03-12T05:00:57.758Z,2.31
2023-03-12T05:01:57.784Z,2.34
2023-03-12T05:02:57.750Z,2.24
2023-03-12T05:03:57.865Z,2.30
2023-03-12T05:05:02.729Z,2.17
2023-03-12T05:05:57.702Z,2.21
2023-03-12T05:06:57.682Z,2.20
2023-03-12T05:07:57.716Z,2.14
2023-03-12T05:08:57.678Z,2.12
2023-03-12T05:09:57.659Z,2.10
2023-03-12T05:10:57.639Z,2.03
2023-03-12T05:11:57.627Z,1.90
2023-03-12T05:12:57.620Z,1.87
2023-03-12T05:13:57.657Z,1.87
2023-03-12T05:14:57.600Z,1.77
2023-03-12T05:16:02.650Z,1.60
2023-03-12T05:16:57.575Z,1.72
2023-03-12T05:17:57.576Z,1.55
2023-03-12T05:18:57.567Z,1.55
2023-03-12T05:19:57.617Z,1.52
2023-03-12T05:20:57.530Z,1.51
2023-03-12T05:21:57.517Z,1.41
2023-03-12T05:22:57.508Z,1.41
2023-03-12T05:23:57.506Z,1.40
2023-03-12T05:24:57.489Z,1.40
2023-03-12T05:25:57.516Z,1.24
2023-03-12T05:27:02.485Z,1.29
2023-03-12T05:27:57.466Z,1.18
2023-03-12T05:28:57.457Z,1.11
2023-03-12T05:29:57.431Z,1.12
2023-03-12T05:30:57.433Z,1.00
2023-03-12T05:31:57.499Z,0.88
2023-03-12T05:32:57.526Z,0.76
2023-03-12T05:33:57.408Z,0.65
2023-03-12T05:34:57.380Z,0.61
2023-03-12T05:35:57.508Z,0.70
2023-03-12T05:36:57.356Z,0.58
2023-03-12T05:38:02.410Z,0.57
2023-03-12T05:38:57.344Z,0.53
2023-03-12T05:39:57.322Z,0.58
2023-03-12T05:40:57.327Z,0.50
2023-03-12T05:41:57.336Z,0.53
2023-03-12T05:42:57.302Z,0.57
2023-03-12T05:43:57.355Z,0.53
2023-03-12T05:44:57.269Z,0.55
2023-03-12T05:45:57.297Z,0.50
2023-03-12T05:46:59.061Z,0.55
2023-03-12T05:47:57.237Z,0.65
2023-03-12T05:49:02.258Z,0.62
2023-03-12T05:49:57.264Z,0.72
2023-03-12T05:50:57.203Z,0.57
2023-03-12T05:51:57.225Z,0.60
2023-03-12T05:52:57.185Z,0.65
2023-03-12T05:53:57.166Z,0.66
2023-03-12T05:54:57.172Z,0.76
2023-03-12T05:55:57.189Z,0.70
2023-03-12T05:56:57.133Z,0.69
2023-03-12T05:57:57.119Z,0.76
2023-03-12T05:58:57.166Z,0.70
2023-03-12T06:00:02.146Z,0.70
2023-03-12T06:00:57.096Z,0.70
2023-03-12T06:01:57.197Z,0.70
2023-03-12T06:02:57.081Z,0.78
2023-03-12T06:03:57.073Z,0.73
2023-03-12T06:04:57.053Z,0.78
2023-03-12T06:05:57.043Z,0.78
2023-03-12T06:06:57.025Z,0.73
2023-03-12T06:07:57.063Z,0.70
2023-03-12T06:08:57.002Z,0.73
2023-03-12T06:09:57.006Z,0.83
2023-03-12T06:11:01.997Z,0.84
2023-03-12T06:11:56.964Z,0.83
2023-03-12T06:12:56.959Z,0.84
2023-03-12T06:13:56.994Z,0.86
2023-03-12T06:14:56.941Z,0.84
2023-03-12T06:15:56.922Z,0.84
2023-03-12T06:16:57.031Z,0.83
2023-03-12T06:17:56.902Z,0.90
2023-03-12T06:18:56.905Z,0.88
2023-03-12T06:19:56.883Z,0.83
2023-03-12T06:20:56.880Z,0.93
2023-03-12T06:22:01.874Z,0.87
2023-03-12T06:22:56.846Z,0.90
2023-03-12T06:23:56.857Z,0.83
2023-03-12T06:24:56.839Z,0.90
2023-03-12T06:25:56.814Z,0.98
2023-03-12T06:26:56.836Z,0.91
2023-03-12T06:27:56.787Z,0.93
2023-03-12T06:28:56.782Z,1.02
2023-03-12T06:29:56.777Z,1.05
2023-03-12T06:30:56.763Z,0.94
2023-03-12T06:31:56.823Z,1.04
2023-03-12T06:33:01.798Z,1.11
2023-03-12T06:33:56.727Z,1.16
2023-03-12T06:34:56.728Z,1.12
2023-03-12T06:35:56.726Z,1.15
2023-03-12T06:36:56.689Z,1.24
2023-03-12T06:37:56.677Z,1.22
2023-03-12T06:38:57.373Z,1.18
2023-03-12T06:39:56.704Z,1.27
2023-03-12T06:40:56.660Z,1.20
2023-03-12T06:41:56.638Z,1.23
2023-03-12T06:42:56.657Z,1.18
2023-03-12T06:44:01.661Z,1.20
2023-03-12T06:44:56.638Z,1.26
2023-03-12T06:45:56.668Z,1.29
2023-03-12T06:46:56.579Z,1.27
2023-03-12T06:47:56.566Z,1.32
2023-03-12T06:48:56.557Z,1.32
2023-03-12T06:49:56.546Z,1.32
2023-03-12T06:50:56.604Z,1.34
2023-03-12T06:51:56.523Z,1.33
2023-03-12T06:52:56.514Z,1.30
2023-03-12T06:53:56.507Z,1.33
2023-03-12T06:55:01.549Z,1.37
2023-03-12T06:55:56.491Z,1.36
2023-03-12T06:56:56.488Z,1.40
2023-03-12T06:57:56.458Z,1.36
2023-03-12T06:58:56.505Z,1.34
2023-03-12T06:59:56.437Z,1.33
2023-03-12T07:00:56.446Z,1.29
2023-03-12T07:01:56.466Z,1.41
2023-03-12T07:02:56.448Z,1.37
2023-03-12T07:03:56.403Z,1.37
2023-03-12T07:04:56.400Z,1.37
2023-03-12T07:06:01.405Z,1.47
2023-03-12T07:06:56.401Z,1.45
2023-03-12T07:07:56.355Z,1.36
2023-03-12T07:08:56.369Z,1.45
2023-03-12T07:09:56.330Z,1.47
2023-03-12T07:10:56.355Z,1.40
2023-03-12T07:11:56.333Z,1.37
2023-03-12T07:12:56.311Z,1.51
2023-03-12T07:13:56.293Z,1.47
2023-03-12T07:14:56.306Z,1.55
2023-03-12T07:15:56.388Z,1.44
2023-03-12T07:17:01.285Z,1.47
2023-03-12T07:17:56.248Z,1.52
2023-03-12T07:18:56.241Z,1.58
2023-03-12T07:19:56.231Z,1.66
2023-03-12T07:20:56.283Z,1.69
2023-03-12T07:21:56.211Z,1.63
2023-03-12T07:22:56.205Z,1.70
2023-03-12T07:23:56.186Z,1.76
2023-03-12T07:24:56.171Z,1.72
2023-03-12T07:25:56.173Z,1.81
2023-03-12T07:26:56.199Z,1.79
2023-03-12T07:28:01.159Z,1.66
2023-03-12T07:28:56.128Z,1.81
2023-03-12T07:29:56.119Z,1.79
2023-03-12T07:30:56.123Z,1.79
2023-03-12T07:31:56.104Z,1.79
2023-03-12T07:32:56.278Z,1.79
2023-03-12T07:33:56.184Z,1.84
2023-03-12T07:34:56.063Z,1.86
2023-03-12T07:35:56.193Z,1.90
2023-03-12T07:36:56.128Z,1.90
2023-03-12T07:37:56.087Z,1.90
2023-03-12T07:39:01.086Z,2.00
2023-03-12T07:39:56.208Z,1.99
2023-03-12T07:40:56.120Z,1.93
2023-03-12T07:41:56.024Z,1.95
2023-03-12T07:42:56.019Z,2.02
2023-03-12T07:43:55.993Z,2.12
2023-03-12T07:44:55.978Z,2.16
2023-03-12T07:45:55.951Z,2.16
2023-03-12T07:46:56.030Z,2.10
2023-03-12T07:47:55.979Z,2.09
2023-03-12T07:48:55.914Z,2.14
2023-03-12T07:50:01.003Z,2.10
2023-03-12T07:50:55.899Z,2.10
2023-03-12T07:51:55.988Z,2.18
2023-03-12T07:52:55.861Z,2.18
2023-03-12T07:53:55.846Z,2.20
2023-03-12T07:54:55.945Z,2.17
2023-03-12T07:55:56.019Z,2.10
2023-03-12T07:56:56.034Z,2.17
2023-03-12T07:57:55.892Z,2.12
2023-03-12T07:58:55.978Z,2.12
2023-03-12T07:59:55.804Z,2.18
2023-03-12T08:01:00.807Z,2.18
2023-03-12T08:01:55.972Z,2.17
2023-03-12T08:02:55.914Z,2.30
2023-03-12T08:03:55.837Z,2.38
2023-03-12T08:04:55.794Z,2.34
2023-03-12T08:05:55.845Z,2.36
2023-03-12T08:06:55.776Z,2.41
2023-03-12T08:07:55.693Z,2.31
2023-03-12T08:08:55.740Z,2.35
2023-03-12T08:09:55.761Z,2.31
2023-03-12T08:10:55.668Z,2.43
2023-03-12T08:12:00.769Z,2.41
2023-03-12T08:12:55.683Z,2.42
2023-03-12T08:13:55.635Z,2.41
2023-03-12T08:14:55.640Z,2.34
2023-03-12T08:15:55.672Z,2.36
2023-03-12T08:16:55.604Z,2.30
2023-03-12T08:17:55.585Z,2.28
2023-03-12T08:18:55.574Z,2.35
2023-03-12T08:19:55.561Z,2.39
2023-03-12T08:20:55.556Z,2.46
2023-03-12T08:21:55.626Z,2.31
2023-03-12T08:23:00.553Z,2.28
2023-03-12T08:23:55.517Z,2.36
2023-03-12T08:24:55.512Z,2.35
2023-03-12T08:25:55.497Z,2.36
2023-03-12T08:26:55.498Z,2.35
2023-03-12T08:27:55.528Z,2.43
2023-03-12T08:28:55.469Z,2.43
2023-03-12T08:29:55.456Z,2.49
2023-03-12T08:30:55.467Z,2.41
2023-03-12T08:32:04.461Z,2.56
2023-03-12T08:32:56.465Z,2.53
2023-03-12T08:34:00.465Z,2.59
2023-03-12T08:34:55.406Z,2.59
2023-03-12T08:35:55.428Z,2.59
2023-03-12T08:36:55.387Z,2.56
2023-03-12T08:37:55.364Z,2.59
2023-03-12T08:38:55.365Z,2.67
2023-03-12T08:39:55.386Z,2.64
2023-03-12T08:40:55.333Z,2.61
2023-03-12T08:41:55.532Z,2.61
2023-03-12T08:42:55.320Z,2.60
2023-03-12T08:43:55.331Z,2.66
2023-03-12T08:45:00.313Z,2.67
2023-03-12T08:45:55.516Z,2.66
2023-03-12T08:46:55.309Z,2.64
2023-03-12T08:47:55.271Z,2.74
2023-03-12T08:48:55.248Z,2.66
2023-03-12T08:49:55.234Z,2.57
2023-03-12T08:50:55.226Z,2.59
2023-03-12T08:51:55.235Z,2.60
2023-03-12T08:52:55.240Z,2.63
2023-03-12T08:53:55.217Z,2.85
2023-03-12T08:54:55.185Z,2.90
2023-03-12T08:56:00.206Z,2.92
2023-03-12T08:56:55.185Z,2.92
2023-03-12T08:57:55.161Z,2.89
2023-03-12T08:58:55.166Z,2.89
2023-03-12T08:59:55.126Z,2.93
2023-03-12T09:00:55.119Z,3.02
2023-03-12T09:01:55.116Z,2.93
2023-03-12T09:02:55.152Z,2.90
2023-03-12T09:03:55.102Z,2.95
2023-03-12T09:04:55.075Z,2.95
2023-03-12T09:05:55.066Z,3.05
2023-03-12T09:07:00.152Z,2.95
2023-03-12T09:07:55.061Z,3.00
2023-03-12T09:08:55.035Z,2.90
2023-03-12T09:09:55.022Z,3.02
2023-03-12T09:10:55.017Z,3.06
2023-03-12T09:11:55.011Z,3.10
2023-03-12T09:12:54.989Z,3.03
2023-03-12T09:14:28.033Z,3.10
2023-03-12T09:15:03.122Z,3.18
2023-03-12T09:15:55.957Z,3.26
2023-03-12T09:16:55.011Z,3.29
2023-03-12T09:17:59.977Z,3.23
2023-03-12T09:18:54.922Z,3.26
2023-03-12T09:19:54.957Z,3.29
2023-03-12T09:20:54.912Z,3.28
2023-03-12T09:21:54.916Z,3.33
2023-03-12T09:22:54.876Z,3.43
2023-03-12T09:23:54.865Z,3.36
2023-03-12T09:24:54.859Z,3.35
2023-03-12T09:25:54.877Z,3.39
2023-03-12T09:26:54.852Z,3.39
2023-03-12T09:27:54.825Z,3.35
2023-03-12T09:28:59.832Z,3.51
2023-03-12T09:30:00.508Z,3.50
2023-03-12T09:30:55.837Z,3.68
2023-03-12T09:31:54.837Z,3.60
2023-03-12T09:32:54.792Z,3.52
2023-03-12T09:33:54.772Z,3.52
2023-03-12T09:34:54.748Z,3.61
2023-03-12T09:35:54.809Z,3.55
2023-03-12T09:36:54.724Z,3.62
2023-03-12T09:37:54.725Z,3.58
2023-03-12T09:38:54.695Z,3.51
2023-03-12T09:39:59.740Z,3.47
2023-03-12T09:40:54.682Z,3.50
2023-03-12T09:41:54.680Z,3.54
2023-03-12T09:42:54.652Z,3.55
2023-03-12T09:43:54.676Z,3.65
2023-03-12T09:44:54.644Z,3.68
2023-03-12T09:45:54.654Z,3.57
2023-03-12T09:46:54.606Z,3.55
2023-03-12T09:47:54.592Z,3.58
2023-03-12T09:48:54.582Z,3.70
2023-03-12T09:49:54.597Z,3.75
2023-03-12T09:50:59.601Z,3.75
2023-03-12T09:51:54.557Z,3.75
2023-03-12T09:52:54.538Z,3.83
2023-03-12T09:53:54.550Z,3.75
2023-03-12T09:54:54.512Z,3.91
2023-03-12T09:55:54.576Z,3.88
2023-03-12T09:56:54.503Z,3.88
2023-03-12T09:57:54.484Z,3.87
2023-03-12T09:58:54.483Z,3.83
2023-03-12T09:59:54.459Z,3.83
2023-03-12T10:00:54.457Z,3.75
2023-03-12T10:01:59.528Z,3.76
2023-03-12T10:02:54.502Z,3.84
2023-03-12T10:03:54.440Z,3.91
2023-03-12T10:04:59.927Z,3.94
2023-03-12T10:05:54.432Z,3.88
2023-03-12T10:06:54.393Z,3.87
2023-03-12T10:07:54.399Z,3.93
2023-03-12T10:08:54.362Z,3.98
2023-03-12T10:09:54.351Z,3.97
2023-03-12T10:10:54.357Z,4.09
2023-03-12T10:11:54.327Z,4.08
2023-03-12T10:12:59.335Z,4.15
2023-03-12T10:13:54.319Z,4.12
2023-03-12T10:14:54.388Z,4.14
2023-03-12T10:15:54.343Z,4.20
2023-03-12T10:16:54.282Z,4.32
2023-03-12T10:17:54.398Z,4.40
2023-03-12T10:18:54.307Z,4.42
2023-03-12T10:19:54.236Z,4.54
2023-03-12T10:20:54.250Z,4.44
2023-03-12T10:21:54.258Z,4.58
2023-03-12T10:22:54.204Z,4.58
2023-03-12T10:23:59.224Z,4.67
2023-03-12T10:24:54.184Z,4.58
2023-03-12T10:25:54.169Z,4.58
2023-03-12T10:26:54.168Z,4.50
2023-03-12T10:27:54.217Z,4.60
2023-03-12T10:28:54.145Z,4.85
2023-03-12T10:29:54.125Z,5.17
2023-03-12T10:30:54.175Z,5.48
2023-03-12T10:31:54.112Z,5.82
2023-03-12T10:32:54.164Z,5.72
2023-03-12T10:33:54.144Z,5.75
2023-03-12T10:34:59.088Z,5.86
2023-03-12T10:35:54.168Z,5.97
2023-03-12T10:36:54.055Z,5.76
2023-03-12T10:37:54.059Z,5.63
2023-03-12T10:38:54.025Z,5.48
2023-03-12T10:39:54.036Z,5.45
2023-03-12T10:40:54.000Z,5.45
2023-03-12T10:41:54.002Z,5.58
2023-03-12T10:42:53.983Z,5.54
2023-03-12T10:43:53.973Z,5.60
2023-03-12T10:44:53.958Z,5.71
2023-03-12T10:45:59.008Z,5.65
2023-03-12T10:46:53.954Z,5.74
2023-03-12T10:47:53.934Z,5.76
2023-03-12T10:48:53.910Z,5.63
2023-03-12T10:49:53.901Z,5.51
2023-03-12T10:50:53.888Z,5.49
2023-03-12T10:51:53.900Z,5.45
2023-03-12T10:52:53.886Z,5.46
2023-03-12T10:53:53.876Z,5.56
2023-03-12T10:54:53.888Z,5.46
2023-03-12T10:55:53.838Z,5.40
2023-03-12T10:56:58.844Z,5.56
2023-03-12T10:57:53.953Z,5.46
2023-03-12T10:58:53.802Z,5.48
2023-03-12T10:59:53.795Z,5.48
2023-03-12T11:00:53.783Z,5.53
2023-03-12T11:01:53.883Z,5.43
2023-03-12T11:02:53.772Z,5.40
2023-03-12T11:03:53.795Z,5.46
2023-03-12T11:04:53.740Z,5.48
2023-03-12T11:05:53.783Z,5.57
2023-03-12T11:06:53.714Z,5.45
2023-03-12T11:07:58.732Z,5.54
2023-03-12T11:09:00.544Z,5.64
2023-03-12T11:09:54.708Z,5.58
2023-03-12T11:10:53.671Z,5.72
2023-03-12T11:11:53.656Z,5.71
2023-03-12T11:12:53.654Z,5.82
2023-03-12T11:13:53.633Z,5.90
2023-03-12T11:14:53.684Z,5.91
2023-03-12T11:15:53.662Z,5.99
2023-03-12T11:16:53.677Z,6.00
2023-03-12T11:17:53.613Z,6.01
2023-03-12T11:18:58.605Z,6.12
2023-03-12T11:19:53.566Z,6.14
2023-03-12T11:20:53.554Z,6.14
2023-03-12T11:21:53.560Z,6.22
2023-03-12T11:22:53.580Z,6.17
2023-03-12T11:23:53.523Z,6.17
2023-03-12T11:24:53.539Z,6.31
2023-03-12T11:25:53.615Z,6.31
2023-03-12T11:26:53.504Z,6.37
2023-03-12T11:27:53.589Z,6.46
2023-03-12T11:28:53.477Z,6.41
2023-03-12T11:29:58.481Z,6.44
2023-03-12T11:30:53.497Z,6.41
2023-03-12T11:31:53.502Z,6.48
2023-03-12T11:32:53.541Z,6.55
2023-03-12T11:33:53.434Z,6.55
2023-03-12T11:34:53.423Z,6.77
2023-03-12T11:35:53.495Z,6.80
2023-03-12T11:36:53.378Z,6.94
2023-03-12T11:37:53.370Z,7.25
2023-03-12T11:38:53.384Z,7.32
2023-03-12T11:39:53.384Z,7.37
2023-03-12T11:40:58.395Z,7.31
2023-03-12T11:41:53.336Z,7.50
2023-03-12T11:42:53.322Z,7.52
2023-03-12T11:43:53.310Z,7.39
2023-03-12T11:44:53.295Z,7.43
2023-03-12T11:45:53.336Z,7.42
2023-03-12T11:46:53.349Z,7.55
2023-03-12T11:47:53.296Z,7.71
2023-03-12T11:48:53.315Z,7.86
2023-03-12T11:49:53.233Z,8.05
2023-03-12T11:50:53.224Z,8.11
2023-03-12T11:51:58.270Z,8.20
2023-03-12T11:52:53.201Z,8.47
2023-03-12T11:53:53.213Z,8.45
2023-03-12T11:54:53.175Z,8.47
2023-03-12T11:55:53.166Z,8.40
2023-03-12T11:56:53.177Z,8.37
2023-03-12T11:57:53.181Z,8.50
2023-03-12T11:58:53.149Z,8.79
2023-03-12T11:59:53.125Z,8.92
2023-03-12T12:00:53.139Z,8.98
2023-03-12T12:01:53.128Z,9.04
2023-03-12T12:02:58.143Z,8.99
2023-03-12T12:03:53.156Z,9.15
2023-03-12T12:04:53.065Z,9.15
2023-03-12T12:05:53.058Z,9.39
2023-03-12T12:06:53.043Z,9.51
2023-03-12T12:07:53.037Z,9.51
2023-03-12T12:08:53.031Z,9.53
2023-03-12T12:09:53.020Z,9.51
2023-03-12T12:10:53.000Z,9.56
2023-03-12T12:11:53.012Z,9.54
2023-03-12T12:12:53.015Z,9.51
2023-03-12T12:13:58.005Z,9.42
2023-03-12T12:14:52.962Z,9.42
2023-03-12T12:15:52.988Z,9.31
2023-03-12T12:16:52.952Z,9.31
2023-03-12T12:17:52.931Z,9.31
2023-03-12T12:18:52.918Z,9.39
2023-03-12T12:19:52.921Z,9.38
2023-03-12T12:20:52.886Z,9.29
2023-03-12T12:21:52.903Z,9.23
2023-03-12T12:22:52.869Z,9.33
2023-03-12T12:23:52.864Z,9.33
2023-03-12T12:24:57.875Z,9.29
2023-03-12T12:25:52.843Z,9.13
2023-03-12T12:26:52.824Z,9.28
2023-03-12T12:27:52.892Z,9.42
2023-03-12T12:28:52.822Z,9.51
2023-03-12T12:29:52.804Z,9.50
2023-03-12T12:30:52.778Z,9.53
2023-03-12T12:31:52.871Z,9.56
2023-03-12T12:32:52.854Z,9.60
2023-03-12T12:33:52.767Z,9.65
2023-03-12T12:34:52.742Z,9.74
2023-03-12T12:35:57.787Z,9.69
2023-03-12T12:36:52.711Z,9.72
2023-03-12T12:37:52.712Z,9.76
2023-03-12T12:38:52.692Z,9.81
2023-03-12T12:39:52.731Z,9.78
2023-03-12T12:40:52.670Z,9.79
2023-03-12T12:41:52.658Z,9.84
2023-03-12T12:42:52.642Z,9.78
2023-03-12T12:43:52.633Z,9.71
2023-03-12T12:44:52.661Z,9.71
2023-03-12T12:45:52.716Z,9.68
2023-03-12T12:46:57.620Z,9.61
2023-03-12T12:47:52.589Z,9.72
2023-03-12T12:48:52.577Z,9.69
2023-03-12T12:49:52.576Z,9.79
2023-03-12T12:50:52.553Z,9.86
2023-03-12T12:51:52.574Z,9.83
2023-03-12T12:52:52.536Z,9.87
2023-03-12T12:53:52.530Z,9.86
2023-03-12T12:54:52.530Z,9.83
2023-03-12T12:55:52.507Z,9.89
2023-03-12T12:56:52.502Z,10.01
2023-03-12T12:57:57.560Z,9.96
2023-03-12T12:58:52.471Z,10.08
2023-03-12T12:59:52.742Z,10.08
2023-03-12T13:00:52.538Z,10.22
2023-03-12T13:01:52.455Z,10.25
2023-03-12T13:02:52.429Z,10.23
2023-03-12T13:03:52.480Z,10.23
2023-03-12T13:04:52.403Z,10.38
2023-03-12T13:05:52.406Z,10.36
2023-03-12T13:06:52.388Z,10.22
2023-03-12T13:07:52.372Z,10.40
2023-03-12T13:08:57.382Z,10.52
2023-03-12T13:09:52.392Z,10.59
2023-03-12T13:11:02.564Z,10.74
2023-03-12T13:11:52.328Z,10.92
2023-03-12T13:12:52.317Z,11.03
2023-03-12T13:13:52.310Z,11.07
2023-03-12T13:14:52.290Z,11.06
2023-03-12T13:15:52.358Z,10.97
2023-03-12T13:16:52.295Z,11.04